Time;durP1;ratioP1;P1;durP2;ratioP2;P2;SDS_P1;SDS_P2;PMS_P1;PMS_P2;Temp;Humidity;BMP_temperature;BMP_pressure;BME280_temperature;BME280_humidity;BME280_pressure;Samples;Min_cycle;Max_cycle;Signal;HPM_P1;HPM_P2
2021/09/25 00:01:45;;;;;;;12.35;5.78;;;;;;;14.79;100.00;101123.41;4998217;28;20487;-77
2021/09/25 00:04:10;;;;;;;8.95;6.20;;;;;;;14.82;100.00;101127.53;5015791;28;20032;-76
2021/09/25 00:06:36;;;;;;;13.77;6.38;;;;;;;14.82;100.00;101124.91;5040596;28;20049;-75
2021/09/25 00:09:02;;;;;;;10.95;5.88;;;;;;;14.76;100.00;101125.56;5005769;28;20090;-77
2021/09/25 00:11:29;;;;;;;14.88;6.18;;;;;;;14.70;100.00;101129.69;5018977;28;20029;-76
2021/09/25 00:13:56;;;;;;;11.32;6.28;;;;;;;14.74;100.00;101128.38;5028700;28;20034;-77
2021/09/25 00:16:26;;;;;;;11.13;6.05;;;;;;;14.72;100.00;101129.53;5023870;28;20041;-76
2021/09/25 00:18:53;;;;;;;9.15;6.20;;;;;;;14.64;100.00;101126.88;5013654;28;20440;-77
2021/09/25 00:21:19;;;;;;;12.95;6.57;;;;;;;14.66;100.00;101128.38;5024410;28;20111;-77
2021/09/25 00:23:45;;;;;;;11.38;6.18;;;;;;;14.64;100.00;101122.44;5029030;28;20025;-77
2021/09/25 00:26:10;;;;;;;9.98;5.97;;;;;;;14.56;100.00;101122.38;5006068;28;20037;-76
2021/09/25 00:28:36;;;;;;;10.13;6.50;;;;;;;14.58;100.00;101115.16;5067316;28;20083;-77
2021/09/25 00:31:01;;;;;;;13.68;6.95;;;;;;;14.56;100.00;101125.84;5044073;28;20744;-76
2021/09/25 00:33:27;;;;;;;16.05;6.97;;;;;;;14.54;100.00;101113.78;5016073;28;20158;-76
2021/09/25 00:35:53;;;;;;;15.20;6.90;;;;;;;14.58;100.00;101112.53;5031318;28;20101;-77
2021/09/25 00:38:18;;;;;;;13.02;6.43;;;;;;;14.52;100.00;101119.25;5031126;28;20039;-77
2021/09/25 00:40:44;;;;;;;17.15;7.40;;;;;;;14.52;100.00;101115.78;5027051;28;20037;-77
2021/09/25 00:43:10;;;;;;;12.98;6.28;;;;;;;14.53;100.00;101117.44;5043766;28;20043;-77
2021/09/25 00:45:35;;;;;;;11.43;6.15;;;;;;;14.51;100.00;101108.84;5031440;28;20115;-77
2021/09/25 00:48:01;;;;;;;14.30;6.40;;;;;;;14.51;100.00;101114.13;5045159;28;20033;-76
2021/09/25 00:50:27;;;;;;;13.65;5.63;;;;;;;14.48;100.00;101122.38;5050346;28;20467;-76
2021/09/25 00:52:54;;;;;;;14.20;6.05;;;;;;;14.44;100.00;101126.31;5015533;28;20415;-76
2021/09/25 00:55:21;;;;;;;14.90;5.80;;;;;;;14.52;100.00;101129.81;4990358;28;20033;-77
2021/09/25 00:57:52;;;;;;;14.38;6.28;;;;;;;14.54;100.00;101132.25;5041671;28;20048;-77
2021/09/25 01:00:18;;;;;;;13.02;5.93;;;;;;;14.54;100.00;101132.25;5016496;28;20064;-78
2021/09/25 01:02:44;;;;;;;10.48;5.30;;;;;;;14.51;100.00;101137.88;5025994;28;20037;-78
2021/09/25 01:05:10;;;;;;;10.00;4.90;;;;;;;14.46;100.00;101143.63;5035697;28;20036;-78
2021/09/25 01:07:37;;;;;;;10.73;5.00;;;;;;;14.46;100.00;101138.34;4998664;28;20067;-77
2021/09/25 01:10:03;;;;;;;9.45;5.25;;;;;;;14.43;100.00;101138.69;5025886;28;20072;-78
2021/09/25 01:12:28;;;;;;;10.02;5.03;;;;;;;14.39;100.00;101134.72;5027172;28;20033;-76
2021/09/25 01:14:54;;;;;;;15.07;5.43;;;;;;;14.40;100.00;101136.38;5016110;28;20488;-77
2021/09/25 01:17:20;;;;;;;12.73;5.18;;;;;;;14.32;100.00;101133.72;5029390;28;20029;-78
2021/09/25 01:19:45;;;;;;;11.93;5.90;;;;;;;14.40;100.00;101139.84;5048252;28;20029;-78
2021/09/25 01:22:11;;;;;;;15.63;5.85;;;;;;;14.35;100.00;101139.50;5008376;28;20091;-77
2021/09/25 01:24:37;;;;;;;13.25;5.35;;;;;;;14.34;100.00;101142.31;5034046;28;20522;-78
2021/09/25 01:27:04;;;;;;;12.30;5.70;;;;;;;14.41;100.00;101151.25;4991059;28;20041;-77
2021/09/25 01:29:32;;;;;;;12.45;5.75;;;;;;;14.40;100.00;101145.13;5032450;28;20519;-78
2021/09/25 01:31:57;;;;;;;14.57;6.30;;;;;;;14.39;100.00;101151.41;5017177;28;20033;-75
2021/09/25 01:34:23;;;;;;;17.23;5.90;;;;;;;14.39;100.00;101145.28;5003452;28;20095;-76
2021/09/25 01:36:49;;;;;;;13.50;6.18;;;;;;;14.40;100.00;101144.28;5027042;28;20402;-75
2021/09/25 01:39:15;;;;;;;12.13;5.72;;;;;;;14.44;100.00;101150.91;5032977;28;20040;-77
2021/09/25 01:41:40;;;;;;;18.92;6.20;;;;;;;14.43;100.00;101148.41;5023121;28;20040;-76
2021/09/25 01:44:06;;;;;;;13.05;6.25;;;;;;;14.49;100.00;101153.06;5032756;28;20434;-77
2021/09/25 01:46:31;;;;;;;14.10;6.03;;;;;;;14.40;100.00;101153.03;5012322;28;20041;-77
2021/09/25 01:48:57;;;;;;;12.27;5.82;;;;;;;14.44;100.00;101155.34;5013696;28;20025;-77
2021/09/25 01:51:23;;;;;;;11.45;5.80;;;;;;;14.43;100.00;101151.06;5028759;28;20033;-77
2021/09/25 01:53:49;;;;;;;13.90;6.03;;;;;;;14.42;100.00;101155.50;5048441;28;20087;-77
2021/09/25 01:56:15;;;;;;;14.98;6.32;;;;;;;14.36;100.00;101140.34;5031891;28;20048;-76
2021/09/25 01:58:42;;;;;;;18.15;7.00;;;;;;;14.41;100.00;101154.69;5018257;28;20116;-76
2021/09/25 02:01:08;;;;;;;18.48;7.55;;;;;;;14.47;100.00;101157.69;5013790;28;20044;-76
2021/09/25 02:03:35;;;;;;;13.05;6.47;;;;;;;14.47;100.00;101163.78;5039958;28;20029;-76
2021/09/25 02:06:06;;;;;;;17.77;7.10;;;;;;;14.43;100.00;101158.97;5013732;28;20043;-77
2021/09/25 02:08:31;;;;;;;17.45;6.88;;;;;;;14.43;100.00;101156.31;5044827;28;20033;-78
2021/09/25 02:10:58;;;;;;;17.15;6.97;;;;;;;14.48;100.00;101169.88;5039466;28;20704;-77
2021/09/25 02:13:24;;;;;;;12.32;6.45;;;;;;;14.44;100.00;101158.00;5039731;28;20065;-78
2021/09/25 02:15:49;;;;;;;10.85;6.63;;;;;;;14.43;100.00;101156.31;5003548;28;20498;-78
2021/09/25 02:18:15;;;;;;;14.38;6.78;;;;;;;14.41;100.00;101159.97;5031302;28;20104;-78
2021/09/25 02:20:40;;;;;;;15.57;7.15;;;;;;;14.40;100.00;101158.31;5041556;28;20033;-76
2021/09/25 02:23:06;;;;;;;15.95;7.20;;;;;;;14.40;100.00;101166.22;5049089;28;20513;-79
2021/09/25 02:25:32;;;;;;;14.80;7.00;;;;;;;14.40;100.00;101162.75;5015314;28;20037;-77
2021/09/25 02:27:57;;;;;;;18.83;8.60;;;;;;;14.39;100.00;101158.47;5022777;28;20049;-76
2021/09/25 02:30:23;;;;;;;13.48;7.32;;;;;;;14.36;100.00;101166.72;5023469;28;20079;-77
2021/09/25 02:32:48;;;;;;;17.65;7.80;;;;;;;14.38;100.00;101172.66;5008692;28;20766;-78
2021/09/25 02:35:17;;;;;;;15.95;8.63;;;;;;;14.35;100.00;101165.06;5026201;28;20090;-77
2021/09/25 02:37:43;;;;;;;17.75;8.45;;;;;;;14.35;100.00;101168.53;5011440;28;20039;-76
2021/09/25 02:40:09;;;;;;;19.92;9.52;;;;;;;14.33;100.00;101167.84;5011428;28;20037;-76
2021/09/25 02:42:35;;;;;;;17.17;9.13;;;;;;;14.32;100.00;101160.94;5014549;28;20025;-78
2021/09/25 02:45:00;;;;;;;20.60;9.35;;;;;;;14.37;100.00;101169.19;5031092;28;20040;-78
2021/09/25 02:47:26;;;;;;;16.20;9.48;;;;;;;14.34;100.00;101160.78;5049231;28;20104;-79
2021/09/25 02:49:52;;;;;;;15.98;9.30;;;;;;;14.30;100.00;101162.91;4997347;28;20063;-78
2021/09/25 02:52:17;;;;;;;19.27;9.93;;;;;;;14.31;100.00;101164.53;5031687;28;20410;-79
2021/09/25 02:54:42;;;;;;;19.35;10.50;;;;;;;14.37;100.00;101165.72;5009123;28;20088;-77
2021/09/25 02:57:08;;;;;;;20.80;10.30;;;;;;;14.36;100.00;101158.81;5011721;28;20502;-76
2021/09/25 02:59:34;;;;;;;22.30;10.50;;;;;;;14.31;100.00;101169.00;5028814;28;20029;-77
2021/09/25 03:01:59;;;;;;;21.30;11.18;;;;;;;14.31;100.00;101169.00;5016686;28;20371;-78
2021/09/25 03:04:25;;;;;;;19.77;10.60;;;;;;;14.32;100.00;101162.75;5048716;28;20040;-77
2021/09/25 03:06:50;;;;;;;28.92;11.73;;;;;;;14.29;100.00;101168.34;5047994;28;20032;-77
2021/09/25 03:09:16;;;;;;;20.33;11.52;;;;;;;14.25;100.00;101164.38;5016030;28;20048;-77
2021/09/25 03:11:41;;;;;;;23.98;12.55;;;;;;;14.43;100.00;101166.88;5011592;28;20029;-76
2021/09/25 03:14:07;;;;;;;23.55;13.85;;;;;;;14.37;100.00;101178.91;4997308;28;20037;-76
2021/09/25 03:16:32;;;;;;;26.58;14.32;;;;;;;14.36;100.00;101167.53;5024967;28;20036;-76
2021/09/25 03:18:58;;;;;;;22.55;13.65;;;;;;;14.35;100.00;101175.59;5008838;28;20064;-76
2021/09/25 03:21:24;;;;;;;24.92;13.90;;;;;;;14.37;100.00;101177.13;5033267;28;20059;-79
2021/09/25 03:23:50;;;;;;;24.50;13.95;;;;;;;14.31;100.00;101167.19;5012876;28;20029;-78
2021/09/25 03:26:15;;;;;;;27.85;14.10;;;;;;;14.38;100.00;101168.19;5037522;28;20694;-78
2021/09/25 03:28:41;;;;;;;27.45;15.05;;;;;;;14.37;100.00;101169.19;5024293;28;20034;-78
2021/09/25 03:31:07;;;;;;;25.70;15.25;;;;;;;14.37;100.00;101163.06;5037412;28;20043;-77
2021/09/25 03:33:32;;;;;;;31.23;17.30;;;;;;;14.36;100.00;101169.34;5016325;28;20036;-77
2021/09/25 03:35:57;;;;;;;30.95;17.75;;;;;;;14.38;100.00;101183.22;5011306;28;20029;-77
2021/09/25 03:38:25;;;;;;;37.90;19.02;;;;;;;14.33;100.00;101173.13;4981837;28;20041;-77
2021/09/25 03:40:51;;;;;;;25.15;18.10;;;;;;;14.37;100.00;101182.41;5035340;28;20030;-76
2021/09/25 03:43:18;;;;;;;34.97;20.13;;;;;;;14.40;100.00;101183.88;5009338;28;20071;-78
2021/09/25 03:45:44;;;;;;;27.67;18.85;;;;;;;14.39;100.00;101185.69;5019803;28;20025;-78
2021/09/25 03:48:09;;;;;;;31.90;19.20;;;;;;;14.38;100.00;101186.66;5017451;28;20108;-77
2021/09/25 03:50:35;;;;;;;33.92;20.30;;;;;;;14.33;100.00;101185.50;5014836;28;20547;-77
2021/09/25 03:53:02;;;;;;;34.10;19.52;;;;;;;14.35;100.00;101188.81;5020288;28;20056;-76
2021/09/25 03:55:29;;;;;;;34.60;20.95;;;;;;;14.38;100.00;101186.66;5009821;28;20025;-77
2021/09/25 03:57:56;;;;;;;36.50;20.40;;;;;;;14.36;100.00;101187.84;5017360;28;20086;-77
2021/09/25 04:00:23;;;;;;;31.13;21.27;;;;;;;14.41;100.00;101196.91;5050872;28;20029;-76
2021/09/25 04:02:52;;;;;;;30.42;21.73;;;;;;;14.43;100.00;101191.50;5033094;28;20044;-75
2021/09/25 04:05:19;;;;;;;30.00;20.75;;;;;;;14.40;100.00;101192.63;5050288;28;20065;-75
2021/09/25 04:07:48;;;;;;;34.42;22.15;;;;;;;14.37;100.00;101195.59;5032150;28;20091;-76
2021/09/25 04:10:15;;;;;;;31.50;20.90;;;;;;;14.41;100.00;101190.81;5021596;28;20044;-77
2021/09/25 04:12:41;;;;;;;33.95;23.75;;;;;;;14.37;100.00;101181.56;5034364;28;20033;-76
2021/09/25 04:15:09;;;;;;;27.42;20.42;;;;;;;14.45;100.00;101192.16;5029841;28;20087;-77
2021/09/25 04:17:37;;;;;;;31.90;20.17;;;;;;;14.39;100.00;101192.78;5030514;28;20021;-76
2021/09/25 04:20:04;;;;;;;35.15;22.95;;;;;;;14.40;100.00;101195.25;5051265;28;20529;-77
2021/09/25 04:22:30;;;;;;;30.45;20.60;;;;;;;14.39;100.00;101198.91;5033888;28;20112;-79
2021/09/25 04:24:55;;;;;;;30.73;22.80;;;;;;;14.43;100.00;101196.75;5033512;28;20112;-78
2021/09/25 04:27:21;;;;;;;30.05;22.40;;;;;;;14.40;100.00;101182.06;5035357;28;20033;-78
2021/09/25 04:29:46;;;;;;;33.30;23.63;;;;;;;14.41;100.00;101186.38;5011304;28;20037;-78
2021/09/25 04:32:12;;;;;;;34.17;23.55;;;;;;;14.40;100.00;101186.53;5014600;28;20032;-76
2021/09/25 04:34:37;;;;;;;37.22;24.00;;;;;;;14.41;100.00;101185.53;5045156;28;20037;-77
2021/09/25 04:37:03;;;;;;;36.40;25.20;;;;;;;14.45;100.00;101196.56;4989965;28;20025;-77
2021/09/25 04:39:29;;;;;;;40.25;26.10;;;;;;;14.49;100.00;101197.94;5005377;28;20045;-79
2021/09/25 04:41:54;;;;;;;31.73;24.10;;;;;;;14.48;100.00;101198.91;5048196;28;20029;-76
2021/09/25 04:44:20;;;;;;;34.75;24.85;;;;;;;14.47;100.00;101205.19;5032098;28;20383;-78
2021/09/25 04:46:46;;;;;;;31.90;23.73;;;;;;;14.41;100.00;101201.38;5031132;28;20032;-78
2021/09/25 04:49:12;;;;;;;32.83;23.30;;;;;;;14.41;100.00;101204.03;5048992;28;20111;-78
2021/09/25 04:51:38;;;;;;;34.50;23.90;;;;;;;14.45;100.00;101212.41;5032257;28;20406;-77
2021/09/25 04:54:04;;;;;;;39.45;25.30;;;;;;;14.45;100.00;101217.69;4999050;28;20032;-78
2021/09/25 04:56:30;;;;;;;40.50;27.52;;;;;;;14.46;100.00;101212.25;5014827;28;20021;-76
2021/09/25 04:58:56;;;;;;;37.53;25.73;;;;;;;14.48;100.00;101214.75;5021916;28;20082;-77
2021/09/25 05:01:23;;;;;;;38.63;26.58;;;;;;;14.51;100.00;101212.63;5011353;28;20041;-76
2021/09/25 05:03:48;;;;;;;40.78;27.63;;;;;;;14.48;100.00;101220.03;5031206;28;20029;-77
2021/09/25 05:06:15;;;;;;;37.75;27.30;;;;;;;14.45;100.00;101218.53;5048943;28;20060;-78
2021/09/25 05:08:41;;;;;;;41.97;29.13;;;;;;;14.49;100.00;101219.06;5048909;28;20124;-76
2021/09/25 05:11:06;;;;;;;44.08;29.58;;;;;;;14.49;100.00;101216.41;5017824;28;20120;-77
2021/09/25 05:13:32;;;;;;;51.10;31.02;;;;;;;14.49;100.00;101213.78;5029997;28;20029;-78
2021/09/25 05:15:57;;;;;;;52.45;30.98;;;;;;;14.51;100.00;101219.72;4991266;28;20037;-78
2021/09/25 05:18:23;;;;;;;50.83;31.70;;;;;;;14.49;100.00;101217.22;5047743;28;20496;-78
2021/09/25 05:20:49;;;;;;;76.60;32.13;;;;;;;14.51;100.00;101219.72;4999480;28;20032;-77
2021/09/25 05:23:15;;;;;;;50.55;32.20;;;;;;;14.52;100.00;101224.84;5016494;28;20483;-77
2021/09/25 05:25:41;;;;;;;53.42;31.58;;;;;;;14.49;100.00;101226.97;5033040;28;20040;-78
2021/09/25 05:28:07;;;;;;;53.55;31.65;;;;;;;14.50;100.00;101232.06;5050131;28;20037;-76
2021/09/25 05:30:32;;;;;;;58.35;33.22;;;;;;;14.53;100.00;101226.47;5000172;28;20145;-76
2021/09/25 05:32:57;;;;;;;59.90;33.05;;;;;;;14.50;100.00;101225.97;5025679;28;20034;-77
2021/09/25 05:35:23;;;;;;;49.55;30.85;;;;;;;14.54;100.00;101233.41;5030047;28;20552;-77
2021/09/25 05:37:49;;;;;;;56.47;33.92;;;;;;;14.63;100.00;101231.63;5017377;28;20028;-77
2021/09/25 05:40:14;;;;;;;51.08;30.50;;;;;;;14.58;100.00;101237.41;5025986;28;20043;-78
2021/09/25 05:42:40;;;;;;;56.78;33.83;;;;;;;14.62;100.00;101232.66;5047107;28;20062;-76
2021/09/25 05:45:06;;;;;;;50.65;32.55;;;;;;;14.62;100.00;101235.28;5018433;28;20028;-76
2021/09/25 05:47:32;;;;;;;59.30;33.35;;;;;;;14.56;100.00;101236.72;5032126;28;20127;-77
2021/09/25 05:49:57;;;;;;;59.30;32.47;;;;;;;14.59;100.00;101243.50;5031995;28;20538;-79
2021/09/25 05:52:23;;;;;;;52.55;31.55;;;;;;;14.59;100.00;101231.13;5014618;28;20029;-77
2021/09/25 05:54:48;;;;;;;61.85;32.30;;;;;;;14.63;100.00;101228.19;5019222;28;20029;-76
2021/09/25 05:57:14;;;;;;;55.33;31.88;;;;;;;14.59;100.00;101214.47;5041275;28;20032;-78
2021/09/25 05:59:39;;;;;;;55.08;31.50;;;;;;;14.67;100.00;101240.06;5027475;28;20109;-79
2021/09/25 06:02:05;;;;;;;46.83;29.45;;;;;;;14.68;100.00;101239.09;4992457;28;20018;-76
2021/09/25 06:04:32;;;;;;;51.13;28.17;;;;;;;14.70;100.00;101253.78;5013357;28;20040;-76
2021/09/25 06:06:58;;;;;;;48.38;27.35;;;;;;;14.67;100.00;101256.72;4971633;28;20110;-77
2021/09/25 06:09:23;;;;;;;46.92;30.50;;;;;;;14.70;100.00;101260.88;5049398;28;20083;-76
2021/09/25 06:11:51;;;;;;;55.90;30.17;;;;;;;14.67;100.00;101269.94;5014238;28;20068;-76
2021/09/25 06:14:18;;;;;;;53.80;30.60;;;;;;;14.70;100.00;101259.06;5048882;28;20040;-76
2021/09/25 06:16:43;;;;;;;42.33;27.10;;;;;;;14.73;100.00;101263.19;5027252;28;20033;-77
2021/09/25 06:19:09;;;;;;;44.03;28.20;;;;;;;14.75;100.00;101277.06;5049254;28;20040;-77
2021/09/25 06:21:35;;;;;;;58.78;30.80;;;;;;;14.78;100.00;101271.44;5048747;28;20044;-77
2021/09/25 06:24:00;;;;;;;57.67;30.48;;;;;;;14.80;100.00;101264.19;4998338;28;20032;-76
2021/09/25 06:26:26;;;;;;;57.58;30.80;;;;;;;14.82;100.00;101256.13;5015570;28;20033;-77
2021/09/25 06:28:52;;;;;;;58.72;30.15;;;;;;;14.87;100.00;101259.09;5051340;28;20040;-78
2021/09/25 06:31:18;;;;;;;58.88;30.00;;;;;;;14.91;100.00;101273.63;5017384;28;20039;-78
2021/09/25 06:33:45;;;;;;;50.90;29.48;;;;;;;14.93;100.00;101277.75;5015320;28;20036;-77
2021/09/25 06:36:11;;;;;;;51.90;28.95;;;;;;;15.00;100.00;101275.31;5030266;28;20037;-78
2021/09/25 06:38:37;;;;;;;49.65;28.67;;;;;;;15.04;100.00;101271.34;5027290;28;20029;-77
2021/09/25 06:41:03;;;;;;;54.30;29.88;;;;;;;15.07;100.00;101265.75;5012287;28;20500;-79
2021/09/25 06:43:28;;;;;;;50.25;29.95;;;;;;;15.08;100.00;101275.31;5049343;28;20453;-79
2021/09/25 06:45:54;;;;;;;57.10;29.05;;;;;;;15.09;100.00;101276.16;5049107;28;20163;-79
2021/09/25 06:48:19;;;;;;;53.17;27.58;;;;;;;15.12;100.00;101279.28;5030090;28;20037;-78
2021/09/25 06:50:45;;;;;;;47.00;26.42;;;;;;;15.14;100.00;101287.03;5028766;28;20030;-77
2021/09/25 06:53:10;;;;;;;39.28;24.05;;;;;;;15.16;100.00;101288.56;4996846;28;20025;-79
2021/09/25 06:55:36;;;;;;;49.55;25.73;;;;;;;15.21;100.00;101301.25;5015464;28;20029;-76
2021/09/25 06:58:02;;;;;;;49.13;25.55;;;;;;;15.26;100.00;101303.44;5052509;28;20488;-76
2021/09/25 07:00:27;;;;;;;49.95;25.90;;;;;;;15.23;100.00;101301.09;5030468;28;20033;-77
2021/09/25 07:02:52;;;;;;;48.50;25.08;;;;;;;15.26;100.00;101301.59;5034747;28;20063;-79
2021/09/25 07:05:18;;;;;;;56.33;24.67;;;;;;;15.25;100.00;101307.03;5034457;28;20140;-75
2021/09/25 07:07:44;;;;;;;53.80;25.17;;;;;;;15.23;100.00;101307.19;5017070;28;20044;-78
2021/09/25 07:10:11;;;;;;;41.55;22.50;;;;;;;15.25;100.00;101314.97;5018854;28;20033;-79
2021/09/25 07:12:37;;;;;;;42.38;21.50;;;;;;;15.25;100.00;101313.16;5038332;28;20040;-78
2021/09/25 07:15:03;;;;;;;36.30;20.73;;;;;;;15.28;100.00;101309.38;5005688;28;20063;-78
2021/09/25 07:17:29;;;;;;;38.92;21.20;;;;;;;15.30;100.00;101304.75;5032695;28;20025;-79
2021/09/25 07:19:54;;;;;;;43.88;21.75;;;;;;;15.33;100.00;101310.53;5027741;28;20061;-80
2021/09/25 07:22:20;;;;;;;35.03;19.70;;;;;;;15.41;100.00;101320.28;5034893;28;20037;-78
2021/09/25 07:24:45;;;;;;;39.42;20.25;;;;;;;15.38;100.00;101308.19;5042329;28;20083;-79
2021/09/25 07:27:11;;;;;;;34.08;19.08;;;;;;;15.41;100.00;101309.72;5038443;28;20112;-79
2021/09/25 07:29:36;;;;;;;34.75;20.23;;;;;;;15.44;100.00;101319.94;5018911;28;20365;-79
2021/09/25 07:32:02;;;;;;;35.70;19.20;;;;;;;15.49;100.00;101324.75;5031454;28;20562;-78
2021/09/25 07:34:28;;;;;;;33.38;19.00;;;;;;;15.48;100.00;101317.78;5030059;28;20037;-79
2021/09/25 07:36:54;;;;;;;29.08;18.00;;;;;;;15.54;100.00;101331.19;5034246;28;20031;-77
2021/09/25 07:39:20;;;;;;;36.60;17.75;;;;;;;15.56;100.00;101329.22;5053166;28;20032;-77
2021/09/25 07:41:46;;;;;;;29.42;17.20;;;;;;;15.58;100.00;101337.81;5035160;28;20025;-79
2021/09/25 07:44:11;;;;;;;334.65;288.60;;;;;;;15.64;100.00;101340.78;5018383;28;20029;-79
2021/09/25 07:46:37;;;;;;;42.15;28.23;;;;;;;15.67;100.00;101341.28;5017808;28;20052;-77
2021/09/25 07:49:05;;;;;;;37.30;19.45;;;;;;;15.74;100.00;101347.56;5049327;28;20036;-77
2021/09/25 07:51:31;;;;;;;46.78;27.58;;;;;;;15.75;100.00;101346.59;5024960;28;20090;-78
2021/09/25 07:53:57;;;;;;;43.22;24.63;;;;;;;15.80;100.00;101342.63;5031642;28;20094;-77
2021/09/25 07:56:22;;;;;;;36.20;19.35;;;;;;;15.88;100.00;101334.66;5049125;28;20037;-77
2021/09/25 07:58:48;;;;;;;29.00;17.08;;;;;;;15.95;100.00;101341.78;5043273;28;20453;-77
2021/09/25 08:01:14;;;;;;;30.88;18.90;;;;;;;16.00;100.00;101351.03;5036838;28;20030;-77
2021/09/25 08:03:40;;;;;;;38.55;20.40;;;;;;;15.97;100.00;101341.59;5030204;28;20040;-78
2021/09/25 08:06:06;;;;;;;38.15;20.65;;;;;;;16.00;100.00;101351.03;5032414;28;20034;-76
2021/09/25 08:08:31;;;;;;;30.65;18.77;;;;;;;15.99;100.00;101349.38;5047397;28;20044;-78
2021/09/25 08:10:57;;;;;;;35.50;18.58;;;;;;;16.02;100.00;101365.75;5020243;28;20083;-78
2021/09/25 08:13:22;;;;;;;34.25;21.08;;;;;;;16.05;100.00;101361.94;5001429;28;20024;-78
2021/09/25 08:15:48;;;;;;;42.53;19.85;;;;;;;16.08;100.00;101361.59;5015508;28;20117;-76
2021/09/25 08:18:14;;;;;;;28.27;16.55;;;;;;;16.12;100.00;101365.56;5011963;28;20025;-76
2021/09/25 08:20:40;;;;;;;37.45;18.27;;;;;;;16.18;100.00;101364.91;5051240;28;20041;-77
2021/09/25 08:23:05;;;;;;;36.47;19.75;;;;;;;16.25;100.00;101363.22;5008946;28;20033;-77
2021/09/25 08:25:31;;;;;;;33.63;17.48;;;;;;;16.36;100.00;101377.94;5017616;28;20041;-78
2021/09/25 08:27:56;;;;;;;26.17;16.77;;;;;;;16.38;100.00;101377.78;4999436;28;20038;-78
2021/09/25 08:30:24;;;;;;;41.05;19.17;;;;;;;16.30;100.00;101379.44;5038391;28;20510;-78
2021/09/25 08:32:53;;;;;;;37.92;17.13;;;;;;;16.31;100.00;101383.75;5034447;28;20040;-77
2021/09/25 08:35:19;;;;;;;28.48;16.23;;;;;;;16.38;100.00;101391.81;5019641;28;20037;-76
2021/09/25 08:37:45;;;;;;;28.58;17.65;;;;;;;16.43;100.00;101393.97;5021206;28;20054;-77
2021/09/25 08:40:13;;;;;;;27.45;16.77;;;;;;;16.52;100.00;101399.09;5051690;28;20398;-78
2021/09/25 08:42:39;;;;;;;32.47;15.70;;;;;;;16.55;100.00;101404.03;5035521;28;20036;-78
2021/09/25 08:45:07;;;;;;;23.92;14.85;;;;;;;16.62;100.00;101414.78;5041624;28;20064;-78
2021/09/25 08:47:33;;;;;;;28.15;15.77;;;;;;;16.65;100.00;101414.44;5009759;28;20130;-81
2021/09/25 08:49:59;;;;;;;26.83;16.65;;;;;;;16.67;100.00;101406.31;5050975;28;20051;-78
2021/09/25 08:52:26;;;;;;;30.20;15.18;;;;;;;16.79;100.00;101412.91;4997584;28;20025;-78
2021/09/25 08:54:51;;;;;;;24.88;14.05;;;;;;;16.92;100.00;101410.56;5028697;28;20495;-76
2021/09/25 08:57:16;;;;;;;27.27;14.77;;;;;;;17.05;100.00;101417.16;5049574;28;20029;-78
2021/09/25 08:59:42;;;;;;;21.05;14.70;;;;;;;17.12;100.00;101423.38;5016883;28;20086;-78
2021/09/25 09:02:13;;;;;;;25.65;13.23;;;;;;;17.10;100.00;101405.03;5041521;28;20170;-82
2021/09/25 09:04:46;;;;;;;24.92;13.63;;;;;;;17.21;100.00;101426.84;5017526;28;20173;-80
2021/09/25 09:07:21;;;;;;;21.92;13.50;;;;;;;17.29;100.00;101421.47;5020754;28;20044;-80
2021/09/25 09:09:47;;;;;;;20.65;13.00;;;;;;;17.39;100.00;101427.41;5054015;28;20094;-79
2021/09/25 09:12:14;;;;;;;24.20;12.43;;;;;;;17.33;100.00;101420.16;5003302;28;20037;-82
2021/09/25 09:14:45;;;;;;;23.30;13.43;;;;;;;17.28;100.00;101419.84;4989300;28;20034;-79
2021/09/25 09:17:15;;;;;;;24.52;13.48;;;;;;;17.34;100.00;101419.13;5046283;28;20461;-78
2021/09/25 09:19:41;;;;;;;24.20;14.68;;;;;;;17.33;100.00;101428.09;5016132;28;20535;-83
2021/09/25 09:22:08;;;;;;;19.50;12.93;;;;;;;17.49;100.00;101422.69;5001318;28;20120;-79
2021/09/25 09:24:48;;;;;;;26.63;14.15;;;;;;;17.59;100.00;101433.06;5022957;28;20461;-80
2021/09/25 09:27:22;;;;;;;18.63;12.98;;;;;;;17.57;100.00;101421.00;5033397;28;20040;-80
2021/09/25 09:29:48;;;;;;;21.65;12.65;;;;;;;17.70;100.00;101431.84;5001261;28;20041;-79
2021/09/25 09:32:14;;;;;;;23.70;11.90;;;;;;;17.67;100.00;101426.91;5017090;28;20079;-79
2021/09/25 09:34:42;;;;;;;22.45;12.35;;;;;;;17.75;100.00;101431.31;5022808;28;20033;-82
2021/09/25 09:37:19;;;;;;;23.40;12.05;;;;;;;17.79;100.00;101435.28;5017979;28;20033;-77
2021/09/25 09:39:59;;;;;;;21.05;11.30;;;;;;;17.83;100.00;101440.03;5043010;28;20044;-81
2021/09/25 09:42:31;;;;;;;19.52;11.20;;;;;;;17.85;100.00;101439.88;5033851;28;20120;-78
2021/09/25 09:44:57;;;;;;;26.35;11.63;;;;;;;17.79;100.00;101429.97;5027756;28;20033;-80
2021/09/25 09:47:22;;;;;;;25.17;12.15;;;;;;;17.85;100.00;101440.72;5019865;28;20043;-79
2021/09/25 09:49:54;;;;;;;19.80;10.57;;;;;;;17.99;100.00;101435.63;5033638;28;20551;-80
2021/09/25 09:52:20;;;;;;;16.52;10.30;;;;;;;18.01;100.00;101437.13;5033166;28;20036;-76
2021/09/25 09:54:47;;;;;;;18.63;10.43;;;;;;;18.03;100.00;101444.91;5030993;28;20122;-78
2021/09/25 09:57:18;;;;;;;20.80;9.55;;;;;;;18.11;100.00;101444.81;4998792;28;20032;-80
2021/09/25 09:59:45;;;;;;;19.25;10.77;;;;;;;18.28;100.00;101450.81;5047614;28;20041;-79
2021/09/25 10:02:11;;;;;;;18.98;9.55;;;;;;;18.61;100.00;101434.53;5051580;28;20041;-78
2021/09/25 10:04:38;;;;;;;19.02;9.57;;;;;;;18.79;100.00;101435.00;5019678;28;20036;-78
2021/09/25 10:07:05;;;;;;;17.95;8.88;;;;;;;18.93;100.00;101452.00;5033347;28;20043;-79
2021/09/25 10:09:32;;;;;;;19.65;8.65;;;;;;;18.79;100.00;101452.78;5016925;28;20068;-77
2021/09/25 10:12:01;;;;;;;17.92;8.93;;;;;;;18.80;100.00;101455.31;5047484;28;20056;-79
2021/09/25 10:14:29;;;;;;;14.75;8.55;;;;;;;18.88;100.00;101457.03;5036671;28;20090;-79
2021/09/25 10:16:58;;;;;;;17.55;7.97;;;;;;;18.86;100.00;101459.06;5024364;28;20370;-80
2021/09/25 10:19:26;;;;;;;15.55;7.97;;;;;;;18.77;100.00;101447.66;5032503;28;20033;-78
2021/09/25 10:21:56;;;;;;;13.25;7.90;;;;;;;18.75;100.00;101449.66;4999744;28;20124;-80
2021/09/25 10:24:29;;;;;;;13.30;8.07;;;;;;;18.82;100.00;101449.81;5044592;28;20037;-79
2021/09/25 10:26:56;;;;;;;21.05;9.20;;;;;;;18.86;100.00;101451.09;5049216;28;20048;-77
2021/09/25 10:29:24;;;;;;;18.23;7.95;;;;;;;18.86;100.00;101457.22;5049238;28;20051;-79
2021/09/25 10:32:09;;;;;;;16.75;7.53;;;;;;;18.90;100.00;101467.50;5032482;28;20048;-77
2021/09/25 10:34:35;;;;;;;14.05;7.22;;;;;;;18.86;100.00;101470.50;5049327;28;20040;-80
2021/09/25 10:37:01;;;;;;;20.00;8.38;;;;;;;18.81;100.00;101467.56;5016095;28;20029;-81
2021/09/25 10:39:36;;;;;;;16.30;8.82;;;;;;;18.73;100.00;101456.19;5048976;28;20503;-78
2021/09/25 10:42:15;;;;;;;14.02;8.07;;;;;;;18.63;100.00;101465.25;5041299;28;20021;-79
2021/09/25 10:44:45;;;;;;;15.20;6.90;;;;;;;18.59;100.00;101468.44;5016226;28;20032;-79
2021/09/25 10:47:19;;;;;;;14.07;7.70;;;;;;;18.52;100.00;101470.19;5026344;28;20156;-78
2021/09/25 10:49:48;;;;;;;15.50;7.78;;;;;;;18.57;100.00;101470.47;5050735;28;20071;-78
2021/09/25 10:52:16;;;;;;;15.65;7.90;;;;;;;18.71;100.00;101471.50;5032495;28;20071;-80
2021/09/25 10:54:43;;;;;;;15.52;7.70;;;;;;;18.63;100.00;101475.88;5015822;28;20064;-81
2021/09/25 10:57:16;;;;;;;15.63;7.60;;;;;;;18.66;100.00;101477.34;5050347;28;20133;-77
2021/09/25 11:00:23;;;;;;;10.98;6.68;;;;;;;18.65;100.00;101476.53;5031477;28;20104;-78
2021/09/25 11:02:49;;;;;;;19.33;7.93;;;;;;;18.71;100.00;101474.16;5033076;28;20033;-79